sensor_id;sensor_type;location;lat;lon;timestamp;P1;durP1;ratioP1;P2;durP2;ratioP2
2434;SDS011;1228;51.022;6.764;2023-12-14T00:00:26;100.13;;;37.47;;
2434;SDS011;1228;51.022;6.764;2023-12-14T00:02:52;98.57;;;34.70;;
2434;SDS011;1228;51.022;6.764;2023-12-14T00:05:17;93.77;;;34.37;;
2434;SDS011;1228;51.022;6.764;2023-12-14T00:07:43;93.83;;;35.00;;
2434;SDS011;1228;51.022;6.764;2023-12-14T00:10:08;90.67;;;33.23;;
2434;SDS011;1228;51.022;6.764;2023-12-14T00:12:34;95.30;;;36.40;;
2434;SDS011;1228;51.022;6.764;2023-12-14T00:15:00;91.07;;;34.80;;
2434;SDS011;1228;51.022;6.764;2023-12-14T00:17:25;104.93;;;35.40;;
2434;SDS011;1228;51.022;6.764;2023-12-14T00:19:51;108.20;;;37.30;;
2434;SDS011;1228;51.022;6.764;2023-12-14T00:22:16;103.60;;;37.07;;
2434;SDS011;1228;51.022;6.764;2023-12-14T00:24:42;98.40;;;36.47;;
2434;SDS011;1228;51.022;6.764;2023-12-14T00:27:07;115.10;;;39.13;;
2434;SDS011;1228;51.022;6.764;2023-12-14T00:29:33;118.63;;;38.23;;
2434;SDS011;1228;51.022;6.764;2023-12-14T00:31:59;121.47;;;39.23;;
2434;SDS011;1228;51.022;6.764;2023-12-14T00:34:24;112.23;;;40.13;;
2434;SDS011;1228;51.022;6.764;2023-12-14T00:36:50;117.33;;;37.23;;
2434;SDS011;1228;51.022;6.764;2023-12-14T00:39:15;127.37;;;39.77;;
2434;SDS011;1228;51.022;6.764;2023-12-14T00:41:41;120.20;;;38.00;;
2434;SDS011;1228;51.022;6.764;2023-12-14T00:44:06;108.63;;;39.93;;
2434;SDS011;1228;51.022;6.764;2023-12-14T00:46:32;103.47;;;36.93;;
2434;SDS011;1228;51.022;6.764;2023-12-14T00:48:58;114.37;;;38.90;;
2434;SDS011;1228;51.022;6.764;2023-12-14T00:51:23;119.20;;;39.53;;
2434;SDS011;1228;51.022;6.764;2023-12-14T00:53:49;129.53;;;41.67;;
2434;SDS011;1228;51.022;6.764;2023-12-14T00:56:14;115.13;;;37.47;;
2434;SDS011;1228;51.022;6.764;2023-12-14T00:58:40;114.80;;;39.73;;
2434;SDS011;1228;51.022;6.764;2023-12-14T01:01:06;105.67;;;38.83;;
2434;SDS011;1228;51.022;6.764;2023-12-14T01:03:31;106.07;;;39.57;;
2434;SDS011;1228;51.022;6.764;2023-12-14T01:05:57;122.00;;;40.67;;
2434;SDS011;1228;51.022;6.764;2023-12-14T01:08:23;117.47;;;41.00;;
2434;SDS011;1228;51.022;6.764;2023-12-14T01:10:48;131.23;;;42.60;;
2434;SDS011;1228;51.022;6.764;2023-12-14T01:13:14;123.17;;;41.10;;
2434;SDS011;1228;51.022;6.764;2023-12-14T01:15:39;123.97;;;40.87;;
2434;SDS011;1228;51.022;6.764;2023-12-14T01:18:05;135.23;;;42.07;;
2434;SDS011;1228;51.022;6.764;2023-12-14T01:20:31;137.17;;;41.77;;
2434;SDS011;1228;51.022;6.764;2023-12-14T01:22:56;134.87;;;43.37;;
2434;SDS011;1228;51.022;6.764;2023-12-14T01:25:22;139.17;;;43.90;;
2434;SDS011;1228;51.022;6.764;2023-12-14T01:27:47;151.13;;;45.50;;
2434;SDS011;1228;51.022;6.764;2023-12-14T01:30:13;142.67;;;43.80;;
2434;SDS011;1228;51.022;6.764;2023-12-14T01:32:39;151.83;;;44.67;;
2434;SDS011;1228;51.022;6.764;2023-12-14T01:35:05;142.73;;;41.63;;
2434;SDS011;1228;51.022;6.764;2023-12-14T01:37:30;144.67;;;43.10;;
2434;SDS011;1228;51.022;6.764;2023-12-14T01:39:56;146.27;;;43.60;;
2434;SDS011;1228;51.022;6.764;2023-12-14T01:42:21;135.40;;;43.00;;
2434;SDS011;1228;51.022;6.764;2023-12-14T01:44:47;141.90;;;42.73;;
2434;SDS011;1228;51.022;6.764;2023-12-14T01:47:13;136.37;;;43.17;;
2434;SDS011;1228;51.022;6.764;2023-12-14T01:49:38;144.77;;;43.03;;
2434;SDS011;1228;51.022;6.764;2023-12-14T01:52:06;127.47;;;42.63;;
2434;SDS011;1228;51.022;6.764;2023-12-14T01:54:32;147.07;;;43.27;;
2434;SDS011;1228;51.022;6.764;2023-12-14T01:56:58;130.50;;;41.73;;
2434;SDS011;1228;51.022;6.764;2023-12-14T01:59:24;128.97;;;41.10;;
2434;SDS011;1228;51.022;6.764;2023-12-14T02:01:52;143.90;;;44.23;;
2434;SDS011;1228;51.022;6.764;2023-12-14T02:04:21;149.07;;;43.27;;
2434;SDS011;1228;51.022;6.764;2023-12-14T02:06:47;122.67;;;40.43;;
2434;SDS011;1228;51.022;6.764;2023-12-14T02:09:12;124.20;;;41.17;;
2434;SDS011;1228;51.022;6.764;2023-12-14T02:11:38;136.03;;;40.07;;
2434;SDS011;1228;51.022;6.764;2023-12-14T02:14:04;134.77;;;40.60;;
2434;SDS011;1228;51.022;6.764;2023-12-14T02:16:34;132.73;;;41.17;;
2434;SDS011;1228;51.022;6.764;2023-12-14T02:19:00;136.93;;;40.37;;
2434;SDS011;1228;51.022;6.764;2023-12-14T02:21:25;126.93;;;40.83;;
2434;SDS011;1228;51.022;6.764;2023-12-14T02:23:51;132.80;;;41.33;;
2434;SDS011;1228;51.022;6.764;2023-12-14T02:26:17;122.43;;;39.87;;
2434;SDS011;1228;51.022;6.764;2023-12-14T02:28:42;112.63;;;39.10;;
2434;SDS011;1228;51.022;6.764;2023-12-14T02:31:08;99.43;;;36.13;;
2434;SDS011;1228;51.022;6.764;2023-12-14T02:33:34;94.03;;;36.27;;
2434;SDS011;1228;51.022;6.764;2023-12-14T02:35:59;92.93;;;35.23;;
2434;SDS011;1228;51.022;6.764;2023-12-14T02:38:25;88.47;;;35.03;;
2434;SDS011;1228;51.022;6.764;2023-12-14T02:40:51;86.23;;;34.63;;
2434;SDS011;1228;51.022;6.764;2023-12-14T02:43:17;93.93;;;35.53;;
2434;SDS011;1228;51.022;6.764;2023-12-14T02:45:44;90.87;;;36.90;;
2434;SDS011;1228;51.022;6.764;2023-12-14T02:48:10;95.73;;;36.20;;
2434;SDS011;1228;51.022;6.764;2023-12-14T02:50:35;89.77;;;33.67;;
2434;SDS011;1228;51.022;6.764;2023-12-14T02:53:01;89.50;;;35.10;;
2434;SDS011;1228;51.022;6.764;2023-12-14T02:55:26;92.70;;;36.43;;
2434;SDS011;1228;51.022;6.764;2023-12-14T02:57:52;98.83;;;39.63;;
2434;SDS011;1228;51.022;6.764;2023-12-14T03:00:18;113.47;;;39.77;;
2434;SDS011;1228;51.022;6.764;2023-12-14T03:02:43;114.53;;;40.30;;
2434;SDS011;1228;51.022;6.764;2023-12-14T03:05:09;100.23;;;38.90;;
2434;SDS011;1228;51.022;6.764;2023-12-14T03:07:35;104.20;;;37.90;;
2434;SDS011;1228;51.022;6.764;2023-12-14T03:10:02;80.77;;;34.23;;
2434;SDS011;1228;51.022;6.764;2023-12-14T03:12:28;88.87;;;36.20;;
2434;SDS011;1228;51.022;6.764;2023-12-14T03:14:53;85.73;;;33.13;;
2434;SDS011;1228;51.022;6.764;2023-12-14T03:17:19;76.77;;;32.93;;
2434;SDS011;1228;51.022;6.764;2023-12-14T03:19:45;78.90;;;33.50;;
2434;SDS011;1228;51.022;6.764;2023-12-14T03:22:10;82.60;;;31.47;;
2434;SDS011;1228;51.022;6.764;2023-12-14T03:24:36;74.87;;;30.77;;
2434;SDS011;1228;51.022;6.764;2023-12-14T03:27:02;87.73;;;33.17;;
2434;SDS011;1228;51.022;6.764;2023-12-14T03:29:28;75.87;;;33.90;;
2434;SDS011;1228;51.022;6.764;2023-12-14T03:31:57;73.57;;;32.87;;
2434;SDS011;1228;51.022;6.764;2023-12-14T03:34:23;85.20;;;33.57;;
2434;SDS011;1228;51.022;6.764;2023-12-14T03:36:49;88.33;;;35.47;;
2434;SDS011;1228;51.022;6.764;2023-12-14T03:39:15;89.70;;;35.60;;
2434;SDS011;1228;51.022;6.764;2023-12-14T03:41:42;108.77;;;42.47;;
2434;SDS011;1228;51.022;6.764;2023-12-14T03:44:08;114.10;;;41.87;;
2434;SDS011;1228;51.022;6.764;2023-12-14T03:46:33;114.57;;;44.63;;
2434;SDS011;1228;51.022;6.764;2023-12-14T03:48:59;110.60;;;42.47;;
2434;SDS011;1228;51.022;6.764;2023-12-14T03:51:25;122.50;;;43.87;;
2434;SDS011;1228;51.022;6.764;2023-12-14T03:53:51;107.87;;;41.30;;
2434;SDS011;1228;51.022;6.764;2023-12-14T03:56:16;119.17;;;42.70;;
2434;SDS011;1228;51.022;6.764;2023-12-14T03:58:42;113.87;;;43.10;;
2434;SDS011;1228;51.022;6.764;2023-12-14T04:01:08;140.77;;;53.17;;
2434;SDS011;1228;51.022;6.764;2023-12-14T04:03:39;120.37;;;42.70;;
2434;SDS011;1228;51.022;6.764;2023-12-14T04:06:05;113.37;;;39.73;;
2434;SDS011;1228;51.022;6.764;2023-12-14T04:08:31;120.93;;;37.60;;
2434;SDS011;1228;51.022;6.764;2023-12-14T04:10:56;120.20;;;37.97;;
2434;SDS011;1228;51.022;6.764;2023-12-14T04:13:22;104.80;;;33.83;;
2434;SDS011;1228;51.022;6.764;2023-12-14T04:15:47;102.77;;;33.13;;
2434;SDS011;1228;51.022;6.764;2023-12-14T04:18:13;102.93;;;33.27;;
2434;SDS011;1228;51.022;6.764;2023-12-14T04:20:39;99.37;;;32.60;;
2434;SDS011;1228;51.022;6.764;2023-12-14T04:23:04;109.23;;;35.33;;
2434;SDS011;1228;51.022;6.764;2023-12-14T04:25:30;98.07;;;34.40;;
2434;SDS011;1228;51.022;6.764;2023-12-14T04:27:56;108.23;;;32.80;;
2434;SDS011;1228;51.022;6.764;2023-12-14T04:30:21;107.10;;;36.17;;
2434;SDS011;1228;51.022;6.764;2023-12-14T04:32:47;98.10;;;34.80;;
2434;SDS011;1228;51.022;6.764;2023-12-14T04:35:12;105.17;;;33.27;;
2434;SDS011;1228;51.022;6.764;2023-12-14T04:37:38;110.67;;;34.97;;
2434;SDS011;1228;51.022;6.764;2023-12-14T04:40:04;93.70;;;33.03;;
2434;SDS011;1228;51.022;6.764;2023-12-14T04:42:30;94.60;;;35.23;;
2434;SDS011;1228;51.022;6.764;2023-12-14T04:44:55;101.63;;;34.40;;
2434;SDS011;1228;51.022;6.764;2023-12-14T04:47:21;110.77;;;34.70;;
2434;SDS011;1228;51.022;6.764;2023-12-14T04:49:46;102.50;;;37.90;;
2434;SDS011;1228;51.022;6.764;2023-12-14T04:52:12;103.83;;;36.47;;
2434;SDS011;1228;51.022;6.764;2023-12-14T04:54:38;103.33;;;39.37;;
2434;SDS011;1228;51.022;6.764;2023-12-14T04:57:05;114.50;;;45.67;;
2434;SDS011;1228;51.022;6.764;2023-12-14T04:59:31;125.23;;;53.23;;
2434;SDS011;1228;51.022;6.764;2023-12-14T05:01:56;98.23;;;39.07;;
2434;SDS011;1228;51.022;6.764;2023-12-14T05:04:22;97.40;;;34.23;;
2434;SDS011;1228;51.022;6.764;2023-12-14T05:06:47;75.40;;;29.87;;
2434;SDS011;1228;51.022;6.764;2023-12-14T05:09:13;85.50;;;30.07;;
2434;SDS011;1228;51.022;6.764;2023-12-14T05:11:39;76.50;;;28.33;;
2434;SDS011;1228;51.022;6.764;2023-12-14T05:14:05;82.93;;;30.03;;
2434;SDS011;1228;51.022;6.764;2023-12-14T05:16:32;92.57;;;33.33;;
2434;SDS011;1228;51.022;6.764;2023-12-14T05:18:58;80.40;;;30.90;;
2434;SDS011;1228;51.022;6.764;2023-12-14T05:21:24;84.20;;;34.00;;
2434;SDS011;1228;51.022;6.764;2023-12-14T05:23:50;90.87;;;33.60;;
2434;SDS011;1228;51.022;6.764;2023-12-14T05:26:15;98.97;;;39.07;;
2434;SDS011;1228;51.022;6.764;2023-12-14T05:28:42;123.83;;;50.93;;
2434;SDS011;1228;51.022;6.764;2023-12-14T05:31:08;89.27;;;36.00;;
2434;SDS011;1228;51.022;6.764;2023-12-14T05:33:37;89.13;;;30.60;;
2434;SDS011;1228;51.022;6.764;2023-12-14T05:36:03;97.20;;;30.60;;
2434;SDS011;1228;51.022;6.764;2023-12-14T05:38:34;97.73;;;30.43;;
2434;SDS011;1228;51.022;6.764;2023-12-14T05:40:59;99.60;;;34.87;;
2434;SDS011;1228;51.022;6.764;2023-12-14T05:43:25;96.57;;;32.37;;
2434;SDS011;1228;51.022;6.764;2023-12-14T05:45:51;102.20;;;33.97;;
2434;SDS011;1228;51.022;6.764;2023-12-14T05:48:16;96.43;;;32.43;;
2434;SDS011;1228;51.022;6.764;2023-12-14T05:50:42;84.97;;;30.40;;
2434;SDS011;1228;51.022;6.764;2023-12-14T05:53:07;95.50;;;31.07;;
2434;SDS011;1228;51.022;6.764;2023-12-14T05:55:33;81.00;;;29.13;;
2434;SDS011;1228;51.022;6.764;2023-12-14T05:57:59;83.60;;;29.07;;
2434;SDS011;1228;51.022;6.764;2023-12-14T06:00:24;97.30;;;30.13;;
2434;SDS011;1228;51.022;6.764;2023-12-14T06:02:50;85.30;;;29.37;;
2434;SDS011;1228;51.022;6.764;2023-12-14T06:05:15;90.33;;;29.27;;
2434;SDS011;1228;51.022;6.764;2023-12-14T06:07:41;88.77;;;30.67;;
2434;SDS011;1228;51.022;6.764;2023-12-14T06:10:07;103.00;;;30.00;;
2434;SDS011;1228;51.022;6.764;2023-12-14T06:12:32;104.77;;;31.90;;
2434;SDS011;1228;51.022;6.764;2023-12-14T06:14:58;92.03;;;30.63;;
2434;SDS011;1228;51.022;6.764;2023-12-14T06:17:24;98.77;;;30.87;;
2434;SDS011;1228;51.022;6.764;2023-12-14T06:19:49;104.10;;;31.67;;
2434;SDS011;1228;51.022;6.764;2023-12-14T06:22:15;103.00;;;32.87;;
2434;SDS011;1228;51.022;6.764;2023-12-14T06:24:40;93.67;;;28.93;;
2434;SDS011;1228;51.022;6.764;2023-12-14T06:27:06;109.27;;;30.57;;
2434;SDS011;1228;51.022;6.764;2023-12-14T06:29:32;98.03;;;29.83;;
2434;SDS011;1228;51.022;6.764;2023-12-14T06:31:57;107.77;;;31.63;;
2434;SDS011;1228;51.022;6.764;2023-12-14T06:34:23;117.53;;;31.23;;
2434;SDS011;1228;51.022;6.764;2023-12-14T06:36:48;91.27;;;30.43;;
2434;SDS011;1228;51.022;6.764;2023-12-14T06:39:14;110.67;;;32.23;;
2434;SDS011;1228;51.022;6.764;2023-12-14T06:41:40;92.90;;;31.17;;
2434;SDS011;1228;51.022;6.764;2023-12-14T06:44:05;101.73;;;32.13;;
2434;SDS011;1228;51.022;6.764;2023-12-14T06:46:34;93.33;;;30.23;;
2434;SDS011;1228;51.022;6.764;2023-12-14T06:48:59;97.73;;;28.80;;
2434;SDS011;1228;51.022;6.764;2023-12-14T06:51:25;104.13;;;31.77;;
2434;SDS011;1228;51.022;6.764;2023-12-14T06:53:50;111.93;;;29.87;;
2434;SDS011;1228;51.022;6.764;2023-12-14T06:56:16;110.17;;;30.47;;
2434;SDS011;1228;51.022;6.764;2023-12-14T06:58:42;112.10;;;29.40;;
2434;SDS011;1228;51.022;6.764;2023-12-14T07:01:12;97.87;;;28.50;;
2434;SDS011;1228;51.022;6.764;2023-12-14T07:03:40;97.03;;;29.40;;
2434;SDS011;1228;51.022;6.764;2023-12-14T07:06:07;93.73;;;28.20;;
2434;SDS011;1228;51.022;6.764;2023-12-14T07:08:33;88.00;;;29.13;;
2434;SDS011;1228;51.022;6.764;2023-12-14T07:10:58;90.40;;;28.07;;
2434;SDS011;1228;51.022;6.764;2023-12-14T07:13:24;92.40;;;28.97;;
2434;SDS011;1228;51.022;6.764;2023-12-14T07:15:49;92.57;;;27.07;;
2434;SDS011;1228;51.022;6.764;2023-12-14T07:18:16;91.60;;;28.50;;
2434;SDS011;1228;51.022;6.764;2023-12-14T07:20:42;84.37;;;25.20;;
2434;SDS011;1228;51.022;6.764;2023-12-14T07:23:07;93.67;;;27.27;;
2434;SDS011;1228;51.022;6.764;2023-12-14T07:25:33;91.43;;;26.50;;
2434;SDS011;1228;51.022;6.764;2023-12-14T07:27:58;84.80;;;27.33;;
2434;SDS011;1228;51.022;6.764;2023-12-14T07:30:24;88.97;;;27.67;;
2434;SDS011;1228;51.022;6.764;2023-12-14T07:32:49;75.70;;;25.27;;
2434;SDS011;1228;51.022;6.764;2023-12-14T07:35:16;81.60;;;26.67;;
2434;SDS011;1228;51.022;6.764;2023-12-14T07:37:41;77.83;;;27.63;;
2434;SDS011;1228;51.022;6.764;2023-12-14T07:40:07;72.80;;;25.23;;
2434;SDS011;1228;51.022;6.764;2023-12-14T07:42:33;62.90;;;22.20;;
2434;SDS011;1228;51.022;6.764;2023-12-14T07:44:59;64.43;;;23.07;;
2434;SDS011;1228;51.022;6.764;2023-12-14T07:47:25;67.50;;;23.07;;
2434;SDS011;1228;51.022;6.764;2023-12-14T07:49:50;69.93;;;24.33;;
2434;SDS011;1228;51.022;6.764;2023-12-14T07:52:16;69.07;;;25.50;;
2434;SDS011;1228;51.022;6.764;2023-12-14T07:54:41;65.93;;;23.93;;
2434;SDS011;1228;51.022;6.764;2023-12-14T07:57:07;75.50;;;23.77;;
2434;SDS011;1228;51.022;6.764;2023-12-14T07:59:33;64.10;;;23.77;;
2434;SDS011;1228;51.022;6.764;2023-12-14T08:01:58;67.80;;;25.63;;
2434;SDS011;1228;51.022;6.764;2023-12-14T08:04:24;67.67;;;24.67;;
2434;SDS011;1228;51.022;6.764;2023-12-14T08:06:50;74.83;;;25.33;;
2434;SDS011;1228;51.022;6.764;2023-12-14T08:09:16;66.40;;;23.93;;
2434;SDS011;1228;51.022;6.764;2023-12-14T08:11:41;66.80;;;24.87;;
2434;SDS011;1228;51.022;6.764;2023-12-14T08:14:07;58.80;;;23.77;;
2434;SDS011;1228;51.022;6.764;2023-12-14T08:16:33;62.37;;;23.33;;
2434;SDS011;1228;51.022;6.764;2023-12-14T08:18:58;57.10;;;22.00;;
2434;SDS011;1228;51.022;6.764;2023-12-14T08:21:24;68.57;;;23.40;;
2434;SDS011;1228;51.022;6.764;2023-12-14T08:23:49;64.43;;;24.73;;
2434;SDS011;1228;51.022;6.764;2023-12-14T08:26:15;68.80;;;25.10;;
2434;SDS011;1228;51.022;6.764;2023-12-14T08:28:41;87.33;;;28.33;;
2434;SDS011;1228;51.022;6.764;2023-12-14T08:31:07;101.83;;;38.13;;
2434;SDS011;1228;51.022;6.764;2023-12-14T08:33:34;82.07;;;30.13;;
2434;SDS011;1228;51.022;6.764;2023-12-14T08:36:00;82.53;;;33.83;;
2434;SDS011;1228;51.022;6.764;2023-12-14T08:38:25;75.23;;;27.83;;
2434;SDS011;1228;51.022;6.764;2023-12-14T08:40:51;67.40;;;25.77;;
2434;SDS011;1228;51.022;6.764;2023-12-14T08:43:17;74.23;;;29.70;;
2434;SDS011;1228;51.022;6.764;2023-12-14T08:45:42;77.47;;;33.93;;
2434;SDS011;1228;51.022;6.764;2023-12-14T08:48:08;80.80;;;36.03;;
2434;SDS011;1228;51.022;6.764;2023-12-14T08:50:34;70.53;;;28.17;;
2434;SDS011;1228;51.022;6.764;2023-12-14T08:53:00;83.20;;;29.97;;
2434;SDS011;1228;51.022;6.764;2023-12-14T08:55:25;81.80;;;30.60;;
2434;SDS011;1228;51.022;6.764;2023-12-14T08:57:51;85.27;;;34.33;;
2434;SDS011;1228;51.022;6.764;2023-12-14T09:00:17;100.43;;;45.40;;
2434;SDS011;1228;51.022;6.764;2023-12-14T09:02:44;74.63;;;32.90;;
2434;SDS011;1228;51.022;6.764;2023-12-14T09:05:11;69.90;;;29.53;;
2434;SDS011;1228;51.022;6.764;2023-12-14T09:07:37;74.47;;;32.77;;
2434;SDS011;1228;51.022;6.764;2023-12-14T09:10:03;71.50;;;29.23;;
2434;SDS011;1228;51.022;6.764;2023-12-14T09:12:29;78.63;;;30.23;;
2434;SDS011;1228;51.022;6.764;2023-12-14T09:14:55;71.83;;;31.57;;
2434;SDS011;1228;51.022;6.764;2023-12-14T09:17:21;72.83;;;28.10;;
2434;SDS011;1228;51.022;6.764;2023-12-14T09:19:46;68.50;;;29.37;;
2434;SDS011;1228;51.022;6.764;2023-12-14T09:22:12;71.37;;;28.53;;
2434;SDS011;1228;51.022;6.764;2023-12-14T09:24:37;67.77;;;28.90;;
2434;SDS011;1228;51.022;6.764;2023-12-14T09:27:03;66.87;;;29.00;;
2434;SDS011;1228;51.022;6.764;2023-12-14T09:29:29;67.10;;;28.80;;
2434;SDS011;1228;51.022;6.764;2023-12-14T09:31:54;68.33;;;28.57;;
2434;SDS011;1228;51.022;6.764;2023-12-14T09:34:20;63.03;;;27.03;;
2434;SDS011;1228;51.022;6.764;2023-12-14T09:36:46;69.53;;;28.10;;
2434;SDS011;1228;51.022;6.764;2023-12-14T09:39:11;78.03;;;28.90;;
2434;SDS011;1228;51.022;6.764;2023-12-14T09:41:37;75.70;;;29.83;;
2434;SDS011;1228;51.022;6.764;2023-12-14T09:44:04;67.23;;;27.40;;
2434;SDS011;1228;51.022;6.764;2023-12-14T09:46:32;71.03;;;27.70;;
2434;SDS011;1228;51.022;6.764;2023-12-14T09:48:59;66.63;;;27.37;;
2434;SDS011;1228;51.022;6.764;2023-12-14T09:51:26;68.00;;;28.77;;
2434;SDS011;1228;51.022;6.764;2023-12-14T09:53:52;77.67;;;28.73;;
2434;SDS011;1228;51.022;6.764;2023-12-14T09:56:23;70.60;;;29.23;;
2434;SDS011;1228;51.022;6.764;2023-12-14T09:58:52;74.60;;;32.33;;
2434;SDS011;1228;51.022;6.764;2023-12-14T10:01:21;70.27;;;28.13;;
2434;SDS011;1228;51.022;6.764;2023-12-14T10:04:13;72.57;;;27.50;;
2434;SDS011;1228;51.022;6.764;2023-12-14T10:06:38;65.83;;;28.50;;
2434;SDS011;1228;51.022;6.764;2023-12-14T10:09:05;72.43;;;29.20;;
2434;SDS011;1228;51.022;6.764;2023-12-14T10:11:38;73.80;;;28.50;;
2434;SDS011;1228;51.022;6.764;2023-12-14T10:14:40;61.43;;;26.73;;
2434;SDS011;1228;51.022;6.764;2023-12-14T10:17:01;69.83;;;27.90;;
2434;SDS011;1228;51.022;6.764;2023-12-14T10:19:53;61.30;;;26.03;;
2434;SDS011;1228;51.022;6.764;2023-12-14T10:22:19;73.07;;;28.27;;
2434;SDS011;1228;51.022;6.764;2023-12-14T10:24:46;62.67;;;27.07;;
2434;SDS011;1228;51.022;6.764;2023-12-14T10:27:14;64.00;;;26.83;;
2434;SDS011;1228;51.022;6.764;2023-12-14T10:29:41;62.43;;;25.60;;
2434;SDS011;1228;51.022;6.764;2023-12-14T10:32:07;54.97;;;25.03;;
2434;SDS011;1228;51.022;6.764;2023-12-14T10:34:34;60.10;;;26.13;;
2434;SDS011;1228;51.022;6.764;2023-12-14T10:37:06;59.93;;;25.80;;
2434;SDS011;1228;51.022;6.764;2023-12-14T10:39:33;53.97;;;26.83;;
2434;SDS011;1228;51.022;6.764;2023-12-14T10:42:02;61.30;;;27.40;;
2434;SDS011;1228;51.022;6.764;2023-12-14T10:44:33;57.83;;;24.93;;
2434;SDS011;1228;51.022;6.764;2023-12-14T10:47:01;55.80;;;25.57;;
2434;SDS011;1228;51.022;6.764;2023-12-14T10:49:29;55.53;;;24.70;;
2434;SDS011;1228;51.022;6.764;2023-12-14T10:51:56;57.13;;;24.40;;
2434;SDS011;1228;51.022;6.764;2023-12-14T10:54:24;58.73;;;25.17;;
2434;SDS011;1228;51.022;6.764;2023-12-14T10:56:54;64.80;;;25.70;;
2434;SDS011;1228;51.022;6.764;2023-12-14T10:59:24;57.27;;;24.90;;
2434;SDS011;1228;51.022;6.764;2023-12-14T11:01:53;53.50;;;25.53;;
2434;SDS011;1228;51.022;6.764;2023-12-14T11:04:22;52.53;;;25.50;;
2434;SDS011;1228;51.022;6.764;2023-12-14T11:06:48;52.93;;;25.60;;
2434;SDS011;1228;51.022;6.764;2023-12-14T11:09:16;59.57;;;25.63;;
2434;SDS011;1228;51.022;6.764;2023-12-14T11:14:18;53.30;;;23.93;;
2434;SDS011;1228;51.022;6.764;2023-12-14T11:16:44;50.13;;;24.63;;
2434;SDS011;1228;51.022;6.764;2023-12-14T11:21:46;50.83;;;24.17;;
2434;SDS011;1228;51.022;6.764;2023-12-14T11:24:12;46.30;;;23.50;;
2434;SDS011;1228;51.022;6.764;2023-12-14T11:26:38;54.20;;;24.33;;
2434;SDS011;1228;51.022;6.764;2023-12-14T11:29:04;55.73;;;24.77;;
2434;SDS011;1228;51.022;6.764;2023-12-14T11:31:32;50.73;;;23.90;;
2434;SDS011;1228;51.022;6.764;2023-12-14T11:33:58;55.80;;;25.10;;
2434;SDS011;1228;51.022;6.764;2023-12-14T11:36:26;61.73;;;24.23;;
2434;SDS011;1228;51.022;6.764;2023-12-14T11:38:52;52.93;;;25.90;;
2434;SDS011;1228;51.022;6.764;2023-12-14T11:41:20;56.50;;;24.33;;
2434;SDS011;1228;51.022;6.764;2023-12-14T11:43:46;47.70;;;24.23;;
2434;SDS011;1228;51.022;6.764;2023-12-14T11:46:14;57.10;;;24.07;;
2434;SDS011;1228;51.022;6.764;2023-12-14T11:48:40;52.03;;;24.80;;
2434;SDS011;1228;51.022;6.764;2023-12-14T11:51:08;49.63;;;24.47;;
2434;SDS011;1228;51.022;6.764;2023-12-14T11:53:35;43.67;;;22.27;;
2434;SDS011;1228;51.022;6.764;2023-12-14T11:56:04;44.60;;;22.97;;
2434;SDS011;1228;51.022;6.764;2023-12-14T11:58:31;49.23;;;25.10;;
2434;SDS011;1228;51.022;6.764;2023-12-14T12:01:10;44.30;;;23.03;;
2434;SDS011;1228;51.022;6.764;2023-12-14T12:03:43;47.20;;;23.60;;
2434;SDS011;1228;51.022;6.764;2023-12-14T12:08:52;42.60;;;23.97;;
2434;SDS011;1228;51.022;6.764;2023-12-14T12:11:19;44.57;;;22.97;;
2434;SDS011;1228;51.022;6.764;2023-12-14T12:13:53;45.20;;;22.73;;
2434;SDS011;1228;51.022;6.764;2023-12-14T12:16:20;40.47;;;21.90;;
2434;SDS011;1228;51.022;6.764;2023-12-14T12:18:46;36.20;;;20.43;;
2434;SDS011;1228;51.022;6.764;2023-12-14T12:21:12;39.20;;;20.87;;
2434;SDS011;1228;51.022;6.764;2023-12-14T12:23:38;41.13;;;20.27;;
2434;SDS011;1228;51.022;6.764;2023-12-14T12:26:04;42.67;;;22.20;;
2434;SDS011;1228;51.022;6.764;2023-12-14T12:28:30;33.37;;;21.00;;
2434;SDS011;1228;51.022;6.764;2023-12-14T12:30:56;29.63;;;18.03;;
2434;SDS011;1228;51.022;6.764;2023-12-14T12:33:24;38.83;;;19.67;;
2434;SDS011;1228;51.022;6.764;2023-12-14T12:35:50;35.73;;;20.90;;
2434;SDS011;1228;51.022;6.764;2023-12-14T12:38:16;39.67;;;19.90;;
2434;SDS011;1228;51.022;6.764;2023-12-14T12:40:43;34.30;;;19.83;;
2434;SDS011;1228;51.022;6.764;2023-12-14T12:43:09;32.43;;;19.97;;
2434;SDS011;1228;51.022;6.764;2023-12-14T12:45:36;31.00;;;18.07;;
2434;SDS011;1228;51.022;6.764;2023-12-14T12:48:02;30.67;;;18.23;;
2434;SDS011;1228;51.022;6.764;2023-12-14T12:50:29;28.90;;;18.23;;
2434;SDS011;1228;51.022;6.764;2023-12-14T12:52:55;29.27;;;17.93;;
2434;SDS011;1228;51.022;6.764;2023-12-14T12:55:20;30.87;;;17.50;;
2434;SDS011;1228;51.022;6.764;2023-12-14T12:57:46;31.93;;;18.83;;
2434;SDS011;1228;51.022;6.764;2023-12-14T13:00:13;27.00;;;17.63;;
2434;SDS011;1228;51.022;6.764;2023-12-14T13:02:42;33.47;;;18.00;;
2434;SDS011;1228;51.022;6.764;2023-12-14T13:05:10;29.30;;;18.27;;
2434;SDS011;1228;51.022;6.764;2023-12-14T13:07:36;28.47;;;17.27;;
2434;SDS011;1228;51.022;6.764;2023-12-14T13:10:03;29.40;;;17.97;;
2434;SDS011;1228;51.022;6.764;2023-12-14T13:12:30;26.40;;;16.13;;
2434;SDS011;1228;51.022;6.764;2023-12-14T13:14:56;27.13;;;16.80;;
2434;SDS011;1228;51.022;6.764;2023-12-14T13:17:22;27.47;;;18.03;;
2434;SDS011;1228;51.022;6.764;2023-12-14T13:19:48;28.33;;;18.23;;
2434;SDS011;1228;51.022;6.764;2023-12-14T13:22:14;26.93;;;16.57;;
2434;SDS011;1228;51.022;6.764;2023-12-14T13:24:39;27.23;;;16.10;;
2434;SDS011;1228;51.022;6.764;2023-12-14T13:27:05;23.73;;;15.57;;
2434;SDS011;1228;51.022;6.764;2023-12-14T13:29:31;23.27;;;15.50;;
2434;SDS011;1228;51.022;6.764;2023-12-14T13:31:57;23.73;;;15.93;;
2434;SDS011;1228;51.022;6.764;2023-12-14T13:34:24;28.13;;;16.47;;
2434;SDS011;1228;51.022;6.764;2023-12-14T13:36:50;24.30;;;15.43;;
2434;SDS011;1228;51.022;6.764;2023-12-14T13:39:16;22.07;;;14.07;;
2434;SDS011;1228;51.022;6.764;2023-12-14T13:41:41;26.83;;;15.93;;
2434;SDS011;1228;51.022;6.764;2023-12-14T13:44:07;23.27;;;15.07;;
2434;SDS011;1228;51.022;6.764;2023-12-14T13:46:32;23.37;;;14.83;;
2434;SDS011;1228;51.022;6.764;2023-12-14T13:48:58;23.10;;;14.43;;
2434;SDS011;1228;51.022;6.764;2023-12-14T13:51:24;19.87;;;13.90;;
2434;SDS011;1228;51.022;6.764;2023-12-14T13:53:51;20.07;;;13.27;;
2434;SDS011;1228;51.022;6.764;2023-12-14T13:56:17;23.47;;;14.33;;
2434;SDS011;1228;51.022;6.764;2023-12-14T13:58:43;20.37;;;14.37;;
2434;SDS011;1228;51.022;6.764;2023-12-14T14:01:08;20.77;;;12.70;;
2434;SDS011;1228;51.022;6.764;2023-12-14T14:03:34;18.60;;;12.73;;
2434;SDS011;1228;51.022;6.764;2023-12-14T14:06:02;21.33;;;13.13;;
2434;SDS011;1228;51.022;6.764;2023-12-14T14:08:28;19.67;;;12.20;;
2434;SDS011;1228;51.022;6.764;2023-12-14T14:10:56;20.33;;;12.87;;
2434;SDS011;1228;51.022;6.764;2023-12-14T14:13:22;18.53;;;12.73;;
2434;SDS011;1228;51.022;6.764;2023-12-14T14:15:48;16.40;;;12.00;;
2434;SDS011;1228;51.022;6.764;2023-12-14T14:18:13;17.47;;;12.07;;
2434;SDS011;1228;51.022;6.764;2023-12-14T14:20:39;14.77;;;11.63;;
2434;SDS011;1228;51.022;6.764;2023-12-14T14:23:04;18.97;;;12.03;;
2434;SDS011;1228;51.022;6.764;2023-12-14T14:25:30;18.93;;;11.80;;
2434;SDS011;1228;51.022;6.764;2023-12-14T14:27:56;17.33;;;12.50;;
2434;SDS011;1228;51.022;6.764;2023-12-14T14:30:23;18.43;;;13.23;;
2434;SDS011;1228;51.022;6.764;2023-12-14T14:32:49;19.70;;;12.83;;
2434;SDS011;1228;51.022;6.764;2023-12-14T14:35:15;19.80;;;13.07;;
2434;SDS011;1228;51.022;6.764;2023-12-14T14:37:40;21.33;;;13.23;;
2434;SDS011;1228;51.022;6.764;2023-12-14T14:40:10;20.27;;;12.40;;
2434;SDS011;1228;51.022;6.764;2023-12-14T14:42:40;18.17;;;12.73;;
2434;SDS011;1228;51.022;6.764;2023-12-14T14:45:06;18.73;;;13.07;;